createdAt,value
2023-02-06T00:00:44.757Z,76.97
2023-02-06T00:01:44.732Z,76.87
2023-02-06T00:02:44.770Z,76.97
2023-02-06T00:03:44.705Z,77.53
2023-02-06T00:04:44.695Z,77.53
2023-02-06T00:05:44.717Z,77.63
2023-02-06T00:06:44.668Z,77.53
2023-02-06T00:07:44.660Z,77.72
2023-02-06T00:08:44.645Z,77.53
2023-02-06T00:09:44.640Z,77.25
2023-02-06T00:10:44.623Z,77.34
2023-02-06T00:11:44.642Z,77.44
2023-02-06T00:12:44.618Z,77.53
2023-02-06T00:13:44.602Z,77.06
2023-02-06T00:14:44.582Z,76.87
2023-02-06T00:15:44.578Z,76.78
2023-02-06T00:16:44.567Z,76.97
2023-02-06T00:17:44.543Z,76.78
2023-02-06T00:18:44.548Z,76.97
2023-02-06T00:19:44.513Z,76.78
2023-02-06T00:20:44.518Z,76.59
2023-02-06T00:21:44.531Z,76.68
2023-02-06T00:22:44.484Z,76.78
2023-02-06T00:23:44.478Z,76.78
2023-02-06T00:24:44.462Z,76.78
2023-02-06T00:25:44.455Z,76.68
2023-02-06T00:26:44.449Z,77.15
2023-02-06T00:27:44.449Z,77.44
2023-02-06T00:28:44.422Z,77.44
2023-02-06T00:29:44.415Z,77.25
2023-02-06T00:30:44.437Z,77.44
2023-02-06T00:31:44.505Z,77.53
2023-02-06T00:32:44.482Z,77.53
2023-02-06T00:33:44.363Z,77.53
2023-02-06T00:34:44.349Z,77.53
2023-02-06T00:35:44.337Z,77.15
2023-02-06T00:36:44.341Z,77.25
2023-02-06T00:37:44.343Z,76.68
2023-02-06T00:38:44.319Z,76.78
2023-02-06T00:39:44.295Z,77.15
2023-02-06T00:40:44.289Z,77.06
2023-02-06T00:41:44.299Z,77.15
2023-02-06T00:42:44.288Z,76.97
2023-02-06T00:43:44.255Z,77.06
2023-02-06T00:44:44.238Z,77.06
2023-02-06T00:45:44.233Z,76.97
2023-02-06T00:46:44.258Z,76.97
2023-02-06T00:47:44.214Z,76.97
2023-02-06T00:48:44.238Z,76.87
2023-02-06T00:49:44.178Z,77.63
2023-02-06T00:50:44.181Z,77.63
2023-02-06T00:51:44.172Z,77.34
2023-02-06T00:52:44.175Z,77.34
2023-02-06T00:53:44.147Z,77.53
2023-02-06T00:54:44.140Z,77.53
2023-02-06T00:55:44.115Z,77.34
2023-02-06T00:56:44.114Z,77.34
2023-02-06T00:57:44.121Z,77.44
2023-02-06T00:58:44.101Z,77.44
2023-02-06T00:59:44.114Z,77.82
2023-02-06T01:00:44.076Z,77.53
2023-02-06T01:01:44.096Z,78.01
2023-02-06T01:02:44.045Z,77.82
2023-02-06T01:03:44.040Z,77.63
2023-02-06T01:04:44.024Z,77.63
2023-02-06T01:05:44.007Z,77.72
2023-02-06T01:06:43.983Z,77.72
2023-02-06T01:07:43.981Z,77.53
2023-02-06T01:08:43.967Z,78.01
2023-02-06T01:09:43.969Z,77.72
2023-02-06T01:10:43.948Z,78.20
2023-02-06T01:11:43.919Z,78.29
2023-02-06T01:12:43.914Z,78.29
2023-02-06T01:13:43.914Z,77.72
2023-02-06T01:14:43.910Z,78.39
2023-02-06T01:15:44.092Z,77.91
2023-02-06T01:17:55.654Z,77.72
2023-02-06T01:18:55.604Z,78.39
2023-02-06T01:20:59.584Z,78.39
2023-02-06T01:21:59.573Z,77.91
2023-02-06T01:24:03.587Z,78.29
2023-02-06T01:25:03.541Z,78.29
2023-02-06T01:27:07.515Z,77.91
2023-02-06T01:28:07.558Z,77.91
2023-02-06T01:30:11.537Z,77.63
2023-02-06T01:31:11.515Z,77.63
2023-02-06T01:33:04.603Z,77.25
2023-02-06T01:34:04.605Z,77.82
2023-02-06T01:36:08.697Z,77.44
2023-02-06T01:37:08.536Z,77.63
2023-02-06T01:39:12.530Z,77.53
2023-02-06T01:40:12.498Z,77.15
2023-02-06T01:42:17.139Z,77.53
2023-02-06T01:43:16.976Z,77.63
2023-02-06T01:44:16.963Z,77.34
2023-02-06T01:45:16.960Z,77.25
2023-02-06T01:46:17.010Z,76.97
2023-02-06T01:47:16.922Z,77.15
2023-02-06T01:48:16.927Z,77.15
2023-02-06T01:49:16.905Z,77.06
2023-02-06T01:50:16.885Z,76.87
2023-02-06T01:51:16.899Z,77.34
2023-02-06T01:52:16.873Z,77.53
2023-02-06T01:53:16.854Z,77.44
2023-02-06T01:54:16.878Z,77.53
2023-02-06T01:55:16.830Z,77.44
2023-02-06T01:56:16.823Z,77.63
2023-02-06T01:57:16.813Z,77.91
2023-02-06T01:58:16.794Z,78.01
2023-02-06T01:59:16.782Z,78.01
2023-02-06T02:00:16.768Z,77.91
2023-02-06T02:01:16.780Z,77.63
2023-02-06T02:02:16.778Z,77.91
2023-02-06T02:03:16.746Z,77.82
2023-02-06T02:04:16.724Z,78.20
2023-02-06T02:05:16.718Z,78.20
2023-02-06T02:06:16.703Z,78.39
2023-02-06T02:07:16.711Z,78.10
2023-02-06T02:08:16.673Z,78.16
2023-02-06T02:09:16.669Z,78.20
2023-02-06T02:10:16.658Z,78.20
2023-02-06T02:11:16.673Z,78.34
2023-02-06T02:12:16.627Z,78.01
2023-02-06T02:13:16.631Z,78.01
2023-02-06T02:14:16.613Z,77.97
2023-02-06T02:15:16.635Z,78.29
2023-02-06T02:16:16.633Z,78.20
2023-02-06T02:17:16.593Z,78.20
2023-02-06T02:18:16.576Z,78.06
2023-02-06T02:19:16.566Z,78.29
2023-02-06T02:20:16.542Z,77.91
2023-02-06T02:21:16.547Z,78.29
2023-02-06T02:22:16.532Z,78.20
2023-02-06T02:23:16.520Z,78.39
2023-02-06T02:24:16.505Z,78.34
2023-02-06T02:25:16.504Z,78.20
2023-02-06T02:26:16.496Z,78.16
2023-02-06T02:27:16.475Z,77.91
2023-02-06T02:28:16.540Z,78.16
2023-02-06T02:29:16.467Z,78.20
2023-02-06T02:30:16.436Z,78.48
2023-02-06T02:31:16.473Z,78.39
2023-02-06T02:32:16.408Z,77.97
2023-02-06T02:33:16.409Z,78.48
2023-02-06T02:34:16.402Z,78.76
2023-02-06T02:35:16.396Z,78.16
2023-02-06T02:36:16.369Z,78.16
2023-02-06T02:37:16.365Z,78.25
2023-02-06T02:38:16.355Z,78.20
2023-02-06T02:39:16.334Z,78.25
2023-02-06T02:40:16.315Z,78.44
2023-02-06T02:41:16.315Z,78.81
2023-02-06T02:42:16.343Z,78.67
2023-02-06T02:43:16.289Z,78.63
2023-02-06T02:44:16.283Z,78.16
2023-02-06T02:45:16.280Z,78.44
2023-02-06T02:46:16.298Z,78.44
2023-02-06T02:47:16.243Z,78.16
2023-02-06T02:48:16.252Z,78.25
2023-02-06T02:49:16.219Z,77.97
2023-02-06T02:50:16.200Z,78.72
2023-02-06T02:51:16.197Z,78.44
2023-02-06T02:52:16.188Z,78.63
2023-02-06T02:53:16.200Z,78.63
2023-02-06T02:54:16.157Z,77.87
2023-02-06T02:55:16.154Z,78.16
2023-02-06T02:56:16.146Z,77.69
2023-02-06T02:57:16.117Z,78.16
2023-02-06T02:58:16.120Z,78.34
2023-02-06T02:59:16.158Z,78.16
2023-02-06T03:00:16.142Z,78.63
2023-02-06T03:01:16.118Z,78.81
2023-02-06T03:02:16.121Z,78.72
2023-02-06T03:03:16.087Z,78.63
2023-02-06T03:04:16.040Z,78.53
2023-02-06T03:05:16.017Z,78.53
2023-02-06T03:06:16.010Z,78.53
2023-02-06T03:07:16.003Z,78.44
2023-02-06T03:08:16.028Z,77.59
2023-02-06T03:09:15.998Z,77.50
2023-02-06T03:10:15.968Z,78.34
2023-02-06T03:11:15.953Z,78.16
2023-02-06T03:12:15.944Z,78.63
2023-02-06T03:13:15.947Z,78.53
2023-02-06T03:14:15.917Z,78.63
2023-02-06T03:15:15.964Z,78.53
2023-02-06T03:16:15.939Z,78.53
2023-02-06T03:17:15.919Z,78.53
2023-02-06T03:18:15.881Z,78.72
2023-02-06T03:19:15.859Z,78.81
2023-02-06T03:20:15.862Z,78.91
2023-02-06T03:21:15.879Z,78.91
2023-02-06T03:22:15.877Z,78.81
2023-02-06T03:23:15.816Z,78.53
2023-02-06T03:24:15.812Z,78.53
2023-02-06T03:25:15.797Z,78.81
2023-02-06T03:26:15.778Z,78.53
2023-02-06T03:27:15.769Z,78.63
2023-02-06T03:28:15.776Z,78.25
2023-02-06T03:29:15.742Z,78.63
2023-02-06T03:30:15.735Z,78.63
2023-02-06T03:31:15.817Z,78.63
2023-02-06T03:32:15.702Z,78.44
2023-02-06T03:33:15.702Z,78.53
2023-02-06T03:34:15.685Z,77.97
2023-02-06T03:35:15.711Z,78.16
2023-02-06T03:36:15.676Z,78.44
2023-02-06T03:37:15.710Z,78.81
2023-02-06T03:38:15.626Z,78.81
2023-02-06T03:39:15.627Z,78.25
2023-02-06T03:40:15.657Z,77.87
2023-02-06T03:41:15.607Z,78.16
2023-02-06T03:42:15.587Z,78.16
2023-02-06T03:43:15.579Z,77.69
2023-02-06T03:44:15.577Z,77.69
2023-02-06T03:45:15.565Z,77.87
2023-02-06T03:46:15.581Z,77.59
2023-02-06T03:47:15.554Z,77.69
2023-02-06T03:48:15.520Z,77.21
2023-02-06T03:49:15.502Z,76.83
2023-02-06T03:50:15.496Z,76.74
2023-02-06T03:51:15.493Z,76.74
2023-02-06T03:52:15.473Z,77.50
2023-02-06T03:53:15.471Z,77.50
2023-02-06T03:54:15.456Z,77.40
2023-02-06T03:55:15.439Z,77.59
2023-02-06T03:56:15.432Z,77.50
2023-02-06T03:57:15.433Z,77.21
2023-02-06T03:58:15.420Z,77.40
2023-02-06T03:59:15.418Z,76.64
2023-02-06T04:00:15.427Z,76.93
2023-02-06T04:01:15.430Z,77.02
2023-02-06T04:02:15.375Z,77.59
2023-02-06T04:03:15.360Z,77.31
2023-02-06T04:04:15.336Z,77.34
2023-02-06T04:05:15.336Z,77.31
2023-02-06T04:06:15.336Z,77.34
2023-02-06T04:07:15.303Z,77.44
2023-02-06T04:08:15.289Z,77.15
2023-02-06T04:09:15.305Z,76.83
2023-02-06T04:10:15.278Z,76.87
2023-02-06T04:11:15.257Z,76.93
2023-02-06T04:12:15.242Z,76.93
2023-02-06T04:13:15.248Z,77.53
2023-02-06T04:14:15.230Z,77.15
2023-02-06T04:15:15.216Z,76.87
2023-02-06T04:16:15.230Z,76.78
2023-02-06T04:17:23.801Z,76.97
2023-02-06T04:18:15.208Z,76.87
2023-02-06T04:19:15.234Z,76.87
2023-02-06T04:20:15.159Z,76.78
2023-02-06T04:21:15.160Z,76.78
2023-02-06T04:22:15.133Z,76.59
2023-02-06T04:23:15.121Z,77.15
2023-02-06T04:24:15.116Z,76.87
2023-02-06T04:25:15.098Z,76.78
2023-02-06T04:26:15.082Z,76.59
2023-02-06T04:27:15.077Z,76.78
2023-02-06T04:28:15.139Z,76.78
2023-02-06T04:29:15.063Z,77.06
2023-02-06T04:30:15.064Z,76.40
2023-02-06T04:31:15.138Z,76.87
2023-02-06T04:32:15.013Z,77.06
2023-02-06T04:33:15.000Z,76.78
2023-02-06T04:34:14.999Z,76.78
2023-02-06T04:35:14.983Z,76.59
2023-02-06T04:36:14.964Z,76.78
2023-02-06T04:37:14.969Z,76.68
2023-02-06T04:38:14.944Z,76.78
2023-02-06T04:39:14.954Z,77.15
2023-02-06T04:40:14.920Z,77.34
2023-02-06T04:41:14.915Z,77.44
2023-02-06T04:42:14.963Z,77.63
2023-02-06T04:43:14.885Z,78.20
2023-02-06T04:44:14.900Z,78.20
2023-02-06T04:45:14.915Z,78.67
2023-02-06T04:46:14.876Z,78.67
2023-02-06T04:47:14.845Z,78.67
2023-02-06T04:48:14.826Z,78.58
2023-02-06T04:49:14.832Z,78.76
2023-02-06T04:50:14.812Z,78.95
2023-02-06T04:51:14.806Z,79.52
2023-02-06T04:52:14.810Z,79.05
2023-02-06T04:53:14.774Z,79.05
2023-02-06T04:54:14.781Z,79.71
2023-02-06T04:55:14.758Z,79.80
2023-02-06T04:56:14.741Z,79.99
2023-02-06T04:57:14.745Z,80.37
2023-02-06T04:58:14.749Z,80.75
2023-02-06T04:59:14.702Z,80.75
2023-02-06T05:00:14.688Z,81.22
2023-02-06T05:01:14.722Z,81.22
2023-02-06T05:02:14.738Z,81.32
2023-02-06T05:03:14.662Z,81.41
2023-02-06T05:04:14.649Z,81.79
2023-02-06T05:05:14.764Z,82.07
2023-02-06T05:06:14.637Z,81.70
2023-02-06T05:07:14.616Z,82.35
2023-02-06T05:08:14.617Z,81.98
2023-02-06T05:09:14.607Z,82.07
2023-02-06T05:10:14.668Z,81.98
2023-02-06T05:11:14.596Z,81.70
2023-02-06T05:12:14.542Z,81.98
2023-02-06T05:13:14.553Z,82.54
2023-02-06T05:14:14.540Z,82.64
2023-02-06T05:15:14.510Z,82.83
2023-02-06T05:16:14.570Z,83.21
2023-02-06T05:17:14.629Z,83.59
2023-02-06T05:18:14.488Z,83.40
2023-02-06T05:19:14.470Z,83.59
2023-02-06T05:20:14.452Z,83.97
2023-02-06T05:21:14.451Z,83.97
2023-02-06T05:22:14.443Z,84.06
2023-02-06T05:23:14.429Z,84.06
2023-02-06T05:24:14.416Z,84.25
2023-02-06T05:25:14.398Z,84.34
2023-02-06T05:26:14.393Z,84.44
2023-02-06T05:27:14.383Z,84.72
2023-02-06T05:28:14.431Z,84.63
2023-02-06T05:29:14.384Z,84.63
2023-02-06T05:30:14.376Z,85.19
2023-02-06T05:31:14.410Z,85.28
2023-02-06T05:32:14.314Z,84.91
2023-02-06T05:33:14.320Z,85.28
2023-02-06T05:34:14.286Z,85.38
2023-02-06T05:35:14.282Z,85.10
2023-02-06T05:36:14.268Z,85.00
2023-02-06T05:37:14.261Z,85.47
2023-02-06T05:38:14.258Z,85.76
2023-02-06T05:39:14.249Z,85.28
2023-02-06T05:40:14.238Z,85.76
2023-02-06T05:41:14.266Z,85.66
2023-02-06T05:42:14.196Z,85.57
2023-02-06T05:43:14.200Z,85.76
2023-02-06T05:44:14.192Z,86.14
2023-02-06T05:45:14.182Z,86.33
2023-02-06T05:46:14.189Z,86.14
2023-02-06T05:47:14.155Z,86.14
2023-02-06T05:48:14.164Z,86.23
2023-02-06T05:49:14.133Z,86.42
2023-02-06T05:50:14.111Z,86.52
2023-02-06T05:51:14.121Z,86.71
2023-02-06T05:52:14.101Z,86.33
2023-02-06T05:53:14.097Z,86.71
2023-02-06T05:54:14.076Z,87.08
2023-02-06T05:55:14.061Z,87.18
2023-02-06T05:56:14.072Z,86.71
2023-02-06T05:57:14.058Z,86.71
2023-02-06T05:58:14.034Z,86.99
2023-02-06T05:59:14.015Z,86.61
2023-02-06T06:00:14.048Z,86.71
2023-02-06T06:01:14.000Z,87.18
2023-02-06T06:02:14.003Z,87.27
2023-02-06T06:03:13.999Z,87.37
2023-02-06T06:04:13.983Z,87.18
2023-02-06T06:05:14.023Z,87.18
2023-02-06T06:06:13.941Z,87.18
2023-02-06T06:07:13.927Z,87.08
2023-02-06T06:08:13.953Z,86.90
2023-02-06T06:09:13.900Z,87.46
2023-02-06T06:10:13.887Z,86.99
2023-02-06T06:11:13.882Z,87.08
2023-02-06T06:12:13.873Z,86.99
2023-02-06T06:13:13.861Z,87.08
2023-02-06T06:14:13.896Z,87.55
2023-02-06T06:15:13.868Z,87.55
2023-02-06T06:16:13.913Z,87.37
2023-02-06T06:17:13.808Z,87.37
2023-02-06T06:18:13.809Z,87.08
2023-02-06T06:19:13.812Z,86.99
2023-02-06T06:20:13.796Z,87.37
2023-02-06T06:21:13.789Z,87.18
2023-02-06T06:22:13.758Z,87.37
2023-02-06T06:23:13.759Z,87.08
2023-02-06T06:24:13.739Z,87.18
2023-02-06T06:25:13.745Z,87.37
2023-02-06T06:26:13.720Z,87.74
2023-02-06T06:27:13.707Z,87.46
2023-02-06T06:28:13.748Z,87.74
2023-02-06T06:29:13.678Z,87.84
2023-02-06T06:30:13.670Z,87.84
2023-02-06T06:31:13.756Z,88.22
2023-02-06T06:32:13.716Z,88.22
2023-02-06T06:33:13.676Z,88.12
2023-02-06T06:34:13.619Z,87.84
2023-02-06T06:35:13.626Z,88.03
2023-02-06T06:36:14.559Z,88.12
2023-02-06T06:37:13.589Z,88.31
2023-02-06T06:38:13.592Z,88.31
2023-02-06T06:39:13.559Z,88.03
2023-02-06T06:40:13.553Z,88.41
2023-02-06T06:41:13.548Z,88.41
2023-02-06T06:42:13.538Z,88.22
2023-02-06T06:43:13.519Z,88.41
2023-02-06T06:44:13.561Z,88.41
2023-02-06T06:45:13.498Z,88.22
2023-02-06T06:46:13.482Z,88.50
2023-02-06T06:47:13.491Z,88.31
2023-02-06T06:48:13.496Z,88.12
2023-02-06T06:49:13.461Z,88.03
2023-02-06T06:50:13.456Z,88.22
2023-02-06T06:51:13.427Z,88.79
2023-02-06T06:52:23.267Z,88.03
2023-02-06T06:53:13.445Z,88.50
2023-02-06T06:54:13.420Z,88.31
2023-02-06T06:55:13.411Z,88.12
2023-02-06T06:56:13.385Z,88.41
2023-02-06T06:57:13.378Z,88.12
2023-02-06T06:58:13.372Z,88.03
2023-02-06T06:59:13.362Z,88.79
2023-02-06T07:00:13.350Z,88.41
2023-02-06T07:01:13.345Z,88.12
2023-02-06T07:02:13.301Z,88.69
2023-02-06T07:03:13.419Z,88.22
2023-02-06T07:04:13.301Z,88.60
2023-02-06T07:05:13.281Z,88.88
2023-02-06T07:06:13.331Z,88.98
2023-02-06T07:07:13.346Z,88.79
2023-02-06T07:08:13.239Z,88.98
2023-02-06T07:09:13.287Z,88.98
2023-02-06T07:10:13.262Z,88.79
2023-02-06T07:11:13.218Z,88.79
2023-02-06T07:12:13.197Z,88.79
2023-02-06T07:13:13.233Z,88.79
2023-02-06T07:14:13.190Z,88.69
2023-02-06T07:15:13.166Z,88.79
2023-02-06T07:16:13.164Z,88.88
2023-02-06T07:17:13.150Z,89.02
2023-02-06T07:18:13.135Z,88.74
2023-02-06T07:19:13.113Z,88.74
2023-02-06T07:20:13.127Z,88.93
2023-02-06T07:21:13.089Z,88.93
2023-02-06T07:22:13.089Z,89.02
2023-02-06T07:23:20.288Z,89.07
2023-02-06T07:25:06.200Z,89.36
2023-02-06T07:26:06.149Z,89.31
2023-02-06T07:28:10.221Z,89.40
2023-02-06T07:29:10.104Z,89.31
2023-02-06T07:31:14.098Z,89.21
2023-02-06T07:32:14.106Z,89.21
2023-02-06T07:34:07.031Z,89.40
2023-02-06T07:35:06.992Z,88.93
2023-02-06T07:37:00.117Z,88.83
2023-02-06T07:38:00.094Z,88.93
2023-02-06T07:40:04.097Z,88.74
2023-02-06T07:41:04.048Z,89.31
2023-02-06T07:43:08.047Z,89.31
2023-02-06T07:44:10.891Z,89.50
2023-02-06T07:46:12.103Z,89.59
2023-02-06T07:47:12.026Z,89.40
2023-02-06T07:49:16.057Z,89.97
2023-02-06T07:50:16.028Z,89.87
2023-02-06T07:52:19.982Z,89.87
2023-02-06T07:53:19.969Z,90.06
2023-02-06T07:55:23.962Z,90.06
2023-02-06T07:56:23.931Z,90.06
2023-02-06T07:58:27.896Z,90.44
2023-02-06T07:59:27.912Z,89.97
2023-02-06T08:01:31.946Z,90.06
2023-02-06T08:02:31.836Z,90.53
2023-02-06T08:04:35.851Z,90.44
2023-02-06T08:05:36.181Z,90.44
2023-02-06T08:07:39.800Z,90.72
2023-02-06T08:08:39.785Z,90.63
2023-02-06T08:10:32.858Z,90.25
2023-02-06T08:11:32.853Z,90.25
2023-02-06T08:13:25.848Z,90.25
2023-02-06T08:14:25.830Z,90.34
2023-02-06T08:16:29.844Z,90.53
2023-02-06T08:17:29.766Z,90.34
2023-02-06T08:19:33.795Z,90.63
2023-02-06T08:20:33.760Z,90.44
2023-02-06T08:22:37.756Z,90.91
2023-02-06T08:23:37.720Z,91.10
2023-02-06T08:25:41.818Z,91.10
2023-02-06T08:26:41.782Z,90.82
2023-02-06T08:28:45.729Z,91.20
2023-02-06T08:29:45.706Z,90.63
2023-02-06T08:31:39.015Z,90.72
2023-02-06T08:32:38.839Z,90.91
2023-02-06T08:34:42.850Z,90.82
2023-02-06T08:35:42.829Z,91.01
2023-02-06T08:37:47.317Z,91.39
2023-02-06T08:38:46.814Z,90.91
2023-02-06T08:40:50.755Z,90.91
2023-02-06T08:41:50.775Z,90.82
2023-02-06T08:43:43.669Z,91.10
2023-02-06T08:44:43.624Z,90.91
2023-02-06T08:46:47.663Z,91.10
2023-02-06T08:47:47.613Z,90.72
2023-02-06T08:49:51.598Z,90.72
2023-02-06T08:50:51.587Z,90.82
2023-02-06T08:52:55.646Z,90.63
2023-02-06T08:53:55.535Z,90.63
2023-02-06T08:55:59.597Z,91.01
2023-02-06T08:56:59.556Z,90.91
2023-02-06T08:57:59.551Z,90.44
2023-02-06T08:58:59.525Z,90.48
2023-02-06T08:59:59.516Z,90.44
2023-02-06T09:00:59.529Z,90.25
2023-02-06T09:01:59.542Z,90.06
2023-02-06T09:02:59.482Z,90.48
2023-02-06T09:03:59.471Z,90.06
2023-02-06T09:04:59.461Z,90.20
2023-02-06T09:06:05.549Z,90.44
2023-02-06T09:06:59.447Z,90.48
2023-02-06T09:07:59.434Z,90.39
2023-02-06T09:08:59.417Z,90.44
2023-02-06T09:09:59.498Z,90.58
2023-02-06T09:10:59.430Z,90.39
2023-02-06T09:11:59.399Z,90.58
2023-02-06T09:12:59.389Z,90.67
2023-02-06T09:13:59.374Z,90.30
2023-02-06T09:14:59.366Z,90.20
2023-02-06T09:15:59.396Z,90.20
2023-02-06T09:16:59.356Z,90.20
2023-02-06T09:17:59.349Z,90.11
2023-02-06T09:18:59.327Z,90.30
2023-02-06T09:19:59.351Z,90.11
2023-02-06T09:20:59.322Z,90.20
2023-02-06T09:21:59.282Z,89.82
2023-02-06T09:22:59.276Z,90.30
2023-02-06T09:23:59.269Z,89.73
2023-02-06T09:24:59.255Z,89.63
2023-02-06T09:25:59.260Z,90.30
2023-02-06T09:27:00.762Z,90.20
2023-02-06T09:27:59.242Z,90.01
2023-02-06T09:28:59.241Z,89.92
2023-02-06T09:29:59.238Z,90.20
2023-02-06T09:30:59.363Z,90.11
2023-02-06T09:31:59.239Z,90.20
2023-02-06T09:32:59.183Z,90.77
2023-02-06T09:33:59.222Z,90.20
2023-02-06T09:34:59.214Z,90.48
2023-02-06T09:35:59.150Z,90.58
2023-02-06T09:36:59.162Z,90.20
2023-02-06T09:37:59.169Z,90.48
2023-02-06T09:38:59.123Z,90.77
2023-02-06T09:39:59.125Z,91.15
2023-02-06T09:40:59.093Z,90.86
2023-02-06T09:41:59.088Z,91.05
2023-02-06T09:42:59.092Z,91.15
2023-02-06T09:43:59.165Z,91.34
2023-02-06T09:44:59.138Z,91.43
2023-02-06T09:45:59.058Z,91.34
2023-02-06T09:46:59.087Z,91.53
2023-02-06T09:47:59.037Z,91.15
2023-02-06T09:48:59.025Z,91.72
2023-02-06T09:49:59.062Z,91.34
2023-02-06T09:50:58.991Z,91.24
2023-02-06T09:51:59.000Z,91.24
2023-02-06T09:52:59.483Z,91.43
2023-02-06T09:53:59.043Z,91.53
2023-02-06T09:54:58.991Z,91.91
2023-02-06T09:55:58.960Z,91.81
2023-02-06T09:56:58.941Z,91.72
2023-02-06T09:57:58.949Z,91.72
2023-02-06T09:58:58.923Z,91.81
2023-02-06T09:59:58.952Z,92.38
2023-02-06T10:00:58.909Z,92.10
2023-02-06T10:01:58.932Z,92.29
2023-02-06T10:02:58.879Z,92.00
2023-02-06T10:03:58.947Z,92.47
2023-02-06T10:04:58.859Z,92.19
2023-02-06T10:05:58.858Z,92.00
2023-02-06T10:06:58.846Z,92.19
2023-02-06T10:07:58.828Z,92.00
2023-02-06T10:08:58.812Z,92.19
2023-02-06T10:09:58.904Z,92.76
2023-02-06T10:10:58.810Z,92.66
2023-02-06T10:11:58.838Z,92.94
2023-02-06T10:12:58.782Z,93.04
2023-02-06T10:13:58.788Z,92.85
2023-02-06T10:14:58.818Z,93.04
2023-02-06T10:15:58.793Z,92.94
2023-02-06T10:16:58.773Z,92.80
2023-02-06T10:17:58.731Z,92.61
2023-02-06T10:18:58.723Z,93.18
2023-02-06T10:19:58.743Z,93.28
2023-02-06T10:20:58.737Z,94.04
2023-02-06T10:21:58.729Z,93.75
2023-02-06T10:22:58.690Z,93.70
2023-02-06T10:23:58.668Z,93.47
2023-02-06T10:24:58.682Z,94.04
2023-02-06T10:25:58.708Z,94.04
2023-02-06T10:26:58.660Z,93.47
2023-02-06T10:27:58.800Z,93.56
2023-02-06T10:28:58.619Z,93.56
2023-02-06T10:29:58.693Z,93.56
2023-02-06T10:30:58.697Z,93.47
2023-02-06T10:31:58.752Z,93.85
2023-02-06T10:32:58.609Z,93.56
2023-02-06T10:33:58.617Z,93.94
2023-02-06T10:34:58.575Z,93.56
2023-02-06T10:35:58.569Z,93.56
2023-02-06T10:36:58.547Z,94.13
2023-02-06T10:37:58.568Z,94.23
2023-02-06T10:38:58.517Z,94.04
2023-02-06T10:39:58.552Z,94.13
2023-02-06T10:40:58.523Z,94.04
2023-02-06T10:41:58.522Z,94.13
2023-02-06T10:42:58.560Z,93.75
2023-02-06T10:43:58.481Z,93.75
2023-02-06T10:45:13.126Z,93.56
2023-02-06T10:45:58.465Z,93.56
2023-02-06T10:46:58.495Z,93.66
2023-02-06T10:47:58.431Z,93.56
2023-02-06T10:48:58.461Z,93.56
2023-02-06T10:49:58.433Z,93.66
2023-02-06T10:50:58.403Z,93.75
2023-02-06T10:51:58.408Z,93.47
2023-02-06T10:52:58.389Z,93.75
2023-02-06T10:53:58.371Z,93.75
2023-02-06T10:54:58.360Z,93.66
2023-02-06T10:55:58.349Z,93.75
2023-02-06T10:56:58.391Z,93.75
2023-02-06T10:57:58.354Z,93.66
2023-02-06T10:58:58.320Z,93.56
2023-02-06T10:59:58.318Z,93.66
2023-02-06T11:00:58.329Z,93.85
2023-02-06T11:02:00.452Z,94.04
2023-02-06T11:03:07.138Z,93.85
2023-02-06T11:03:58.307Z,93.75
2023-02-06T11:04:58.267Z,93.66
2023-02-06T11:05:58.259Z,93.66
2023-02-06T11:06:58.269Z,93.66
2023-02-06T11:07:58.235Z,93.66
2023-02-06T11:08:58.221Z,93.47
2023-02-06T11:09:58.234Z,93.94
2023-02-06T11:10:58.212Z,93.66
2023-02-06T11:11:58.202Z,93.66
2023-02-06T11:12:58.165Z,93.75
2023-02-06T11:13:58.205Z,93.75
2023-02-06T11:14:58.146Z,93.18
2023-02-06T11:15:58.155Z,93.66
2023-02-06T11:16:58.143Z,94.04
2023-02-06T11:17:58.127Z,93.75
2023-02-06T11:18:58.129Z,93.66
2023-02-06T11:19:58.104Z,93.37
2023-02-06T11:20:58.119Z,93.85
2023-02-06T11:21:58.079Z,93.94
2023-02-06T11:22:58.081Z,93.85
2023-02-06T11:23:58.100Z,93.85
2023-02-06T11:24:58.045Z,94.23
2023-02-06T11:25:58.048Z,94.13
2023-02-06T11:26:58.077Z,93.94
2023-02-06T11:27:58.093Z,93.85
2023-02-06T11:28:58.068Z,93.66
2023-02-06T11:29:58.004Z,93.56
2023-02-06T11:30:58.084Z,93.47
2023-02-06T11:31:57.982Z,93.75
2023-02-06T11:33:04.386Z,93.66
2023-02-06T11:33:57.978Z,93.75
2023-02-06T11:34:57.955Z,94.04
2023-02-06T11:35:57.947Z,93.85
2023-02-06T11:36:57.937Z,93.85
2023-02-06T11:37:57.936Z,93.66
2023-02-06T11:38:57.912Z,93.56
2023-02-06T11:39:57.909Z,93.56
2023-02-06T11:40:57.889Z,93.85
2023-02-06T11:41:57.877Z,94.13
2023-02-06T11:42:57.867Z,93.85
2023-02-06T11:43:57.859Z,94.04
2023-02-06T11:44:57.844Z,93.18
2023-02-06T11:45:57.878Z,92.71
2023-02-06T11:46:57.831Z,92.90
2023-02-06T11:47:57.821Z,93.09
2023-02-06T11:48:57.808Z,92.99
2023-02-06T11:49:57.803Z,93.28
2023-02-06T11:50:57.801Z,92.52
2023-02-06T11:51:57.770Z,92.33
2023-02-06T11:52:57.770Z,92.43
2023-02-06T11:53:57.783Z,92.43
2023-02-06T11:54:57.748Z,92.80
2023-02-06T11:55:57.749Z,92.43
2023-02-06T11:56:57.730Z,92.43
2023-02-06T11:57:57.719Z,92.43
2023-02-06T11:58:57.703Z,92.52
2023-02-06T11:59:57.695Z,92.52
2023-02-06T12:00:57.690Z,92.61
2023-02-06T12:01:57.844Z,92.80
2023-02-06T12:02:57.688Z,92.24
2023-02-06T12:03:57.655Z,92.24
2023-02-06T12:04:57.680Z,91.96
2023-02-06T12:05:59.567Z,92.14
2023-02-06T12:06:57.645Z,92.33
2023-02-06T12:07:57.619Z,92.05
2023-02-06T12:08:57.626Z,92.14
2023-02-06T12:09:57.596Z,91.77
2023-02-06T12:10:57.593Z,92.14
2023-02-06T12:11:57.593Z,92.24
2023-02-06T12:12:57.567Z,91.29
2023-02-06T12:13:57.555Z,91.48
2023-02-06T12:14:57.554Z,91.48
2023-02-06T12:15:57.552Z,91.58
2023-02-06T12:16:57.572Z,91.20
2023-02-06T12:17:57.523Z,90.91
2023-02-06T12:18:57.533Z,91.29
2023-02-06T12:19:57.498Z,91.10
2023-02-06T12:20:57.494Z,91.10
2023-02-06T12:21:57.518Z,91.39
2023-02-06T12:22:57.476Z,91.48
2023-02-06T12:23:57.459Z,91.10
2023-02-06T12:24:57.446Z,91.29
2023-02-06T12:25:57.480Z,91.10
2023-02-06T12:26:57.424Z,91.10
2023-02-06T12:27:57.465Z,91.39
2023-02-06T12:28:57.419Z,91.10
2023-02-06T12:29:57.387Z,90.63
2023-02-06T12:30:57.510Z,91.01
2023-02-06T12:31:57.508Z,91.10
2023-02-06T12:32:57.367Z,90.91
2023-02-06T12:33:57.386Z,91.01
2023-02-06T12:34:57.343Z,91.01
2023-02-06T12:35:57.334Z,90.63
2023-02-06T12:36:57.360Z,90.16
2023-02-06T12:37:57.297Z,90.44
2023-02-06T12:38:57.314Z,90.16
2023-02-06T12:39:57.284Z,90.34
2023-02-06T12:40:57.278Z,90.34
2023-02-06T12:41:57.256Z,90.34
2023-02-06T12:42:57.266Z,90.53
2023-02-06T12:43:57.247Z,90.25
2023-02-06T12:44:57.242Z,90.16
2023-02-06T12:45:57.250Z,90.72
2023-02-06T12:46:57.222Z,90.16
2023-02-06T12:47:57.199Z,90.44
2023-02-06T12:48:57.244Z,90.53
2023-02-06T12:49:57.185Z,90.16
2023-02-06T12:50:57.201Z,90.25
2023-02-06T12:51:57.175Z,90.06
2023-02-06T12:52:57.152Z,90.34
2023-02-06T12:53:57.152Z,90.44
2023-02-06T12:54:57.136Z,89.78
2023-02-06T12:55:59.019Z,90.25
2023-02-06T12:56:57.128Z,89.87
2023-02-06T12:57:57.121Z,90.16
2023-02-06T12:58:57.105Z,90.06
2023-02-06T12:59:58.532Z,90.25
2023-02-06T13:00:57.070Z,90.44
2023-02-06T13:01:57.082Z,90.53
2023-02-06T13:02:57.086Z,90.53
2023-02-06T13:03:57.034Z,89.97
2023-02-06T13:04:57.029Z,89.87
2023-02-06T13:05:57.016Z,90.16
2023-02-06T13:06:57.013Z,89.97
2023-02-06T13:07:56.996Z,89.59
2023-02-06T13:08:57.001Z,89.78
2023-02-06T13:09:56.982Z,89.69
2023-02-06T13:10:56.981Z,89.87
2023-02-06T13:11:56.966Z,89.69
2023-02-06T13:12:56.964Z,89.78
2023-02-06T13:13:56.952Z,89.59
2023-02-06T13:14:56.940Z,89.87
2023-02-06T13:15:56.943Z,89.69
2023-02-06T13:16:56.910Z,89.78
2023-02-06T13:17:56.920Z,89.87
2023-02-06T13:18:56.905Z,89.78
2023-02-06T13:19:56.890Z,89.97
2023-02-06T13:20:56.873Z,89.78
2023-02-06T13:21:57.442Z,89.73
2023-02-06T13:23:05.016Z,89.92
2023-02-06T13:25:00.940Z,89.25
2023-02-06T13:26:00.855Z,89.54
2023-02-06T13:28:04.963Z,89.54
2023-02-06T13:29:04.849Z,89.54
2023-02-06T13:30:04.811Z,89.35
2023-02-06T13:31:04.857Z,89.44
2023-02-06T13:32:04.812Z,88.87
2023-02-06T13:33:04.779Z,88.87
2023-02-06T13:34:04.789Z,88.87
2023-02-06T13:35:04.756Z,88.87
2023-02-06T13:36:04.797Z,88.87